createdAt,value
2019-02-06T00:00:11.662Z,0.00
2019-02-06T00:01:11.651Z,0.00
2019-02-06T00:02:11.641Z,0.00
2019-02-06T00:03:11.628Z,0.00
2019-02-06T00:04:11.618Z,0.00
2019-02-06T00:05:14.388Z,0.00
2019-02-06T00:06:11.602Z,0.00
2019-02-06T00:07:11.590Z,0.00
2019-02-06T00:08:11.580Z,0.00
2019-02-06T00:09:11.578Z,0.00
2019-02-06T00:10:11.561Z,0.00
2019-02-06T00:11:11.557Z,0.00
2019-02-06T00:12:11.542Z,0.00
2019-02-06T00:13:11.533Z,0.00
2019-02-06T00:14:11.522Z,0.00
2019-02-06T00:15:11.516Z,0.00
2019-02-06T00:16:11.504Z,0.00
2019-02-06T00:17:11.519Z,0.00
2019-02-06T00:18:11.516Z,0.00
2019-02-06T00:19:11.479Z,0.00
2019-02-06T00:20:11.472Z,0.00
2019-02-06T00:21:11.455Z,0.00
2019-02-06T00:22:11.446Z,0.00
2019-02-06T00:23:11.445Z,0.00
2019-02-06T00:24:11.426Z,0.00
2019-02-06T00:25:11.421Z,0.00
2019-02-06T00:26:11.412Z,0.00
2019-02-06T00:27:11.400Z,0.00
2019-02-06T00:28:11.391Z,0.00
2019-02-06T00:29:11.384Z,0.00
2019-02-06T00:30:11.370Z,0.00
2019-02-06T00:31:11.360Z,0.00
2019-02-06T00:32:11.356Z,0.00
2019-02-06T00:33:11.346Z,0.00
2019-02-06T00:34:11.337Z,0.00
2019-02-06T00:35:11.325Z,0.00
2019-02-06T00:36:11.315Z,0.00
2019-02-06T00:37:11.306Z,0.00
2019-02-06T00:38:11.295Z,0.00
2019-02-06T00:39:11.286Z,0.00
2019-02-06T00:40:11.278Z,0.00
2019-02-06T00:41:11.267Z,0.00
2019-02-06T00:42:11.257Z,0.00
2019-02-06T00:43:11.245Z,0.00
2019-02-06T00:44:11.231Z,0.00
2019-02-06T00:45:11.227Z,0.00
2019-02-06T00:46:11.212Z,0.00
2019-02-06T00:47:11.202Z,0.00
2019-02-06T00:48:11.195Z,0.00
2019-02-06T00:49:11.188Z,0.00
2019-02-06T00:50:11.178Z,0.00
2019-02-06T00:51:11.167Z,0.00
2019-02-06T00:52:11.153Z,0.00
2019-02-06T00:53:11.148Z,0.00
2019-02-06T00:54:11.136Z,0.00
2019-02-06T00:55:11.128Z,0.00
2019-02-06T00:56:11.117Z,0.00
2019-02-06T00:57:11.101Z,0.00
2019-02-06T00:58:11.093Z,0.00
2019-02-06T00:59:11.084Z,0.00
2019-02-06T01:00:11.077Z,0.00
2019-02-06T01:01:11.063Z,0.00
2019-02-06T01:02:11.056Z,0.00
2019-02-06T01:03:11.041Z,0.00
2019-02-06T01:04:11.034Z,0.00
2019-02-06T01:05:11.023Z,0.00
2019-02-06T01:06:11.017Z,0.00
2019-02-06T01:07:11.005Z,0.00
2019-02-06T01:08:11.001Z,0.00
2019-02-06T01:09:10.989Z,0.00
2019-02-06T01:10:10.978Z,0.00
2019-02-06T01:11:10.960Z,0.00
2019-02-06T01:12:10.955Z,0.00
2019-02-06T01:13:10.944Z,0.00
2019-02-06T01:14:10.930Z,0.00
2019-02-06T01:15:10.925Z,0.00
2019-02-06T01:16:10.918Z,0.00
2019-02-06T01:17:10.907Z,0.00
2019-02-06T01:18:10.895Z,0.00
2019-02-06T01:19:10.890Z,0.00
2019-02-06T01:20:10.875Z,0.00
2019-02-06T01:21:10.864Z,0.00
2019-02-06T01:22:10.851Z,0.00
2019-02-06T01:23:10.846Z,0.00
2019-02-06T01:24:10.839Z,0.00
2019-02-06T01:25:10.825Z,0.00
2019-02-06T01:26:10.836Z,0.00
2019-02-06T01:27:10.808Z,0.00
2019-02-06T01:28:10.793Z,0.00
2019-02-06T01:29:10.785Z,0.00
2019-02-06T01:30:10.778Z,0.00
2019-02-06T01:31:23.498Z,0.00
2019-02-06T01:32:10.757Z,0.00
2019-02-06T01:33:10.745Z,0.00
2019-02-06T01:34:10.738Z,0.00
2019-02-06T01:35:10.926Z,0.00
2019-02-06T01:36:10.718Z,0.00
2019-02-06T01:37:10.706Z,0.00
2019-02-06T01:38:10.692Z,0.00
2019-02-06T01:39:10.776Z,0.00
2019-02-06T01:40:10.681Z,0.00
2019-02-06T01:41:10.662Z,0.00
2019-02-06T01:42:10.654Z,0.00
2019-02-06T01:43:10.648Z,0.00
2019-02-06T01:44:10.637Z,0.00
2019-02-06T01:45:10.626Z,0.00
2019-02-06T01:46:10.613Z,0.00
2019-02-06T01:47:10.606Z,0.00
2019-02-06T01:48:10.594Z,0.00
2019-02-06T01:49:10.584Z,0.00
2019-02-06T01:50:10.573Z,0.00
2019-02-06T01:51:10.766Z,0.00
2019-02-06T01:52:10.557Z,0.00
2019-02-06T01:53:10.546Z,0.00
2019-02-06T01:54:10.536Z,0.00
2019-02-06T01:55:10.528Z,0.00
2019-02-06T01:56:10.513Z,0.00
2019-02-06T01:57:10.507Z,0.00
2019-02-06T01:58:10.492Z,0.00
2019-02-06T01:59:10.482Z,0.00
2019-02-06T02:00:10.472Z,0.00
2019-02-06T02:01:10.460Z,0.00
2019-02-06T02:02:10.456Z,0.00
2019-02-06T02:03:10.443Z,0.00
2019-02-06T02:04:10.635Z,0.00
2019-02-06T02:05:10.424Z,0.00
2019-02-06T02:06:10.407Z,0.00
2019-02-06T02:07:10.401Z,0.00
2019-02-06T02:08:10.386Z,0.00
2019-02-06T02:09:10.378Z,0.00
2019-02-06T02:10:10.369Z,0.00
2019-02-06T02:11:10.358Z,0.00
2019-02-06T02:12:10.346Z,0.00
2019-02-06T02:13:10.337Z,0.00
2019-02-06T02:14:10.329Z,0.00
2019-02-06T02:15:10.319Z,0.00
2019-02-06T02:16:10.308Z,0.00
2019-02-06T02:17:10.295Z,0.00
2019-02-06T02:18:10.286Z,0.00
2019-02-06T02:19:10.272Z,0.00
2019-02-06T02:20:10.268Z,0.00
2019-02-06T02:21:10.254Z,0.00
2019-02-06T02:22:10.240Z,0.00
2019-02-06T02:23:10.231Z,0.00
2019-02-06T02:24:10.222Z,0.00
2019-02-06T02:25:10.214Z,0.00
2019-02-06T02:26:10.206Z,0.00
2019-02-06T02:27:10.189Z,0.00
2019-02-06T02:28:10.182Z,0.00
2019-02-06T02:29:10.171Z,0.00
2019-02-06T02:30:10.164Z,0.00
2019-02-06T02:31:10.152Z,0.00
2019-02-06T02:32:10.141Z,0.00
2019-02-06T02:33:10.133Z,0.00
2019-02-06T02:34:10.120Z,0.00
2019-02-06T02:35:10.113Z,0.00
2019-02-06T02:36:15.779Z,0.00
2019-02-06T02:37:10.085Z,0.00
2019-02-06T02:38:10.078Z,0.00
2019-02-06T02:39:10.065Z,0.00
2019-02-06T02:40:10.055Z,0.00
2019-02-06T02:41:10.050Z,0.00
2019-02-06T02:42:10.038Z,0.00
2019-02-06T02:43:10.031Z,0.00
2019-02-06T02:44:10.019Z,0.00
2019-02-06T02:45:10.001Z,0.00
2019-02-06T02:46:09.996Z,0.00
2019-02-06T02:47:09.989Z,0.00
2019-02-06T02:48:09.974Z,0.00
2019-02-06T02:49:09.964Z,0.00
2019-02-06T02:50:09.953Z,0.00
2019-02-06T02:51:09.944Z,0.00
2019-02-06T02:52:09.936Z,0.00
2019-02-06T02:53:09.923Z,0.00
2019-02-06T02:54:09.912Z,0.00
2019-02-06T02:55:09.919Z,0.00
2019-02-06T02:56:09.892Z,0.00
2019-02-06T02:57:09.882Z,0.00
2019-02-06T02:58:09.873Z,0.00
2019-02-06T02:59:09.864Z,0.00
2019-02-06T03:00:09.856Z,0.00
2019-02-06T03:01:09.843Z,0.00
2019-02-06T03:02:09.829Z,0.00
2019-02-06T03:03:09.818Z,0.00
2019-02-06T03:04:09.807Z,0.00
2019-02-06T03:05:09.802Z,0.00
2019-02-06T03:06:09.788Z,0.00
2019-02-06T03:07:09.778Z,0.00
2019-02-06T03:08:09.772Z,0.00
2019-02-06T03:09:09.760Z,0.00
2019-02-06T03:10:09.758Z,0.00
2019-02-06T03:11:09.732Z,0.00
2019-02-06T03:12:09.726Z,0.00
2019-02-06T03:13:09.721Z,0.00
2019-02-06T03:14:09.708Z,0.00
2019-02-06T03:15:09.694Z,0.00
2019-02-06T03:16:09.682Z,0.00
2019-02-06T03:17:09.681Z,0.00
2019-02-06T03:18:09.667Z,0.00
2019-02-06T03:19:09.653Z,0.00
2019-02-06T03:20:09.646Z,0.00
2019-02-06T03:21:09.642Z,0.00
2019-02-06T03:22:09.619Z,0.00
2019-02-06T03:23:09.616Z,0.00
2019-02-06T03:24:09.608Z,0.00
2019-02-06T03:25:09.592Z,0.00
2019-02-06T03:26:09.786Z,0.00
2019-02-06T03:27:09.572Z,0.00
2019-02-06T03:28:09.563Z,0.00
2019-02-06T03:29:09.551Z,0.00
2019-02-06T03:30:09.539Z,0.00
2019-02-06T03:31:09.541Z,0.00
2019-02-06T03:32:09.519Z,0.00
2019-02-06T03:33:09.512Z,0.00
2019-02-06T03:34:09.501Z,0.00
2019-02-06T03:35:09.497Z,0.00
2019-02-06T03:36:09.480Z,0.00
2019-02-06T03:37:09.469Z,0.00
2019-02-06T03:38:09.461Z,0.00
2019-02-06T03:39:09.451Z,0.00
2019-02-06T03:40:09.443Z,0.00
2019-02-06T03:41:09.427Z,0.00
2019-02-06T03:42:09.418Z,0.00
2019-02-06T03:43:09.412Z,0.00
2019-02-06T03:44:09.400Z,0.00
2019-02-06T03:45:09.389Z,0.00
2019-02-06T03:46:09.374Z,0.00
2019-02-06T03:47:09.393Z,0.00
2019-02-06T03:48:09.358Z,0.00
2019-02-06T03:49:09.350Z,0.00
2019-02-06T03:50:09.362Z,0.00
2019-02-06T03:51:09.324Z,0.00
2019-02-06T03:52:09.321Z,0.00
2019-02-06T03:53:09.324Z,0.00
2019-02-06T03:54:09.308Z,0.00
2019-02-06T03:55:09.318Z,0.00
2019-02-06T03:56:09.277Z,0.00
2019-02-06T03:57:09.309Z,0.00
2019-02-06T03:58:09.256Z,0.00
2019-02-06T03:59:09.245Z,0.00
2019-02-06T04:00:09.236Z,0.00
2019-02-06T04:01:11.385Z,0.00
2019-02-06T04:02:09.218Z,0.00
2019-02-06T04:03:09.312Z,0.00
2019-02-06T04:04:09.197Z,0.00
2019-02-06T04:05:09.181Z,0.00
2019-02-06T04:06:09.176Z,0.00
2019-02-06T04:07:09.165Z,0.00
2019-02-06T04:08:09.151Z,0.00
2019-02-06T04:09:09.144Z,0.00
2019-02-06T04:10:09.133Z,0.00
2019-02-06T04:11:09.124Z,0.00
2019-02-06T04:12:09.113Z,0.00
2019-02-06T04:13:09.102Z,0.00
2019-02-06T04:14:09.094Z,0.00
2019-02-06T04:15:09.189Z,0.00
2019-02-06T04:16:09.075Z,0.00
2019-02-06T04:17:09.061Z,0.00
2019-02-06T04:18:09.054Z,0.00
2019-02-06T04:19:09.040Z,0.00
2019-02-06T04:20:09.034Z,0.00
2019-02-06T04:21:09.224Z,0.00
2019-02-06T04:22:09.009Z,0.00
2019-02-06T04:24:08.987Z,0.00
2019-02-06T04:25:08.975Z,0.00
2019-02-06T04:26:08.970Z,0.00
2019-02-06T04:27:08.954Z,0.00
2019-02-06T04:28:08.949Z,0.00
2019-02-06T04:29:08.945Z,0.00
2019-02-06T04:30:08.942Z,0.00
2019-02-06T04:31:08.921Z,0.00
2019-02-06T04:32:08.906Z,0.00
2019-02-06T04:33:08.894Z,0.00
2019-02-06T04:34:08.885Z,0.00
2019-02-06T04:35:09.056Z,0.00
2019-02-06T04:36:08.865Z,0.00
2019-02-06T04:37:08.855Z,0.00
2019-02-06T04:38:08.851Z,0.00
2019-02-06T04:39:08.831Z,0.00
2019-02-06T04:40:08.821Z,0.00
2019-02-06T04:41:08.810Z,0.00
2019-02-06T04:42:08.808Z,0.00
2019-02-06T04:43:08.792Z,0.00
2019-02-06T04:44:08.780Z,0.00
2019-02-06T04:45:08.776Z,0.00
2019-02-06T04:46:08.761Z,0.00
2019-02-06T04:47:08.863Z,0.00
2019-02-06T04:48:08.747Z,0.00
2019-02-06T04:49:08.735Z,0.00
2019-02-06T04:50:08.725Z,0.00
2019-02-06T04:51:08.728Z,0.00
2019-02-06T04:52:08.701Z,0.00
2019-02-06T04:53:08.688Z,0.00
2019-02-06T04:54:08.678Z,0.00
2019-02-06T04:55:08.673Z,0.00
2019-02-06T04:56:08.746Z,0.00
2019-02-06T04:57:09.510Z,0.00
2019-02-06T04:58:08.640Z,0.00
2019-02-06T04:59:08.630Z,0.00
2019-02-06T05:00:08.620Z,0.00
2019-02-06T05:01:08.606Z,0.00
2019-02-06T05:02:08.598Z,0.00
2019-02-06T05:03:08.607Z,0.00
2019-02-06T05:04:08.576Z,0.00
2019-02-06T05:05:08.568Z,0.00
2019-02-06T05:06:08.559Z,0.00
2019-02-06T05:07:18.741Z,0.00
2019-02-06T05:08:08.539Z,0.00
2019-02-06T05:09:08.531Z,0.00
2019-02-06T05:10:08.517Z,0.00
2019-02-06T05:11:08.507Z,0.00
2019-02-06T05:12:09.638Z,0.00
2019-02-06T05:13:08.686Z,0.00
2019-02-06T05:14:08.479Z,0.00
2019-02-06T05:15:08.471Z,0.00
2019-02-06T05:16:08.456Z,0.00
2019-02-06T05:17:08.446Z,0.00
2019-02-06T05:18:08.434Z,0.00
2019-02-06T05:19:08.429Z,0.00
2019-02-06T05:20:08.414Z,0.00
2019-02-06T05:21:08.405Z,0.00
2019-02-06T05:22:08.396Z,0.00
2019-02-06T05:23:08.385Z,0.00
2019-02-06T05:24:08.372Z,0.00
2019-02-06T05:25:08.361Z,0.00
2019-02-06T05:26:08.350Z,0.00
2019-02-06T05:27:08.340Z,0.00
2019-02-06T05:28:08.332Z,0.00
2019-02-06T05:29:08.316Z,0.00
2019-02-06T05:30:08.306Z,0.00
2019-02-06T05:31:08.301Z,0.00
2019-02-06T05:32:08.289Z,0.00
2019-02-06T05:33:08.281Z,0.00
2019-02-06T05:34:08.272Z,0.00
2019-02-06T05:35:08.257Z,0.00
2019-02-06T05:36:08.245Z,0.00
2019-02-06T05:37:08.238Z,0.00
2019-02-06T05:38:08.448Z,0.00
2019-02-06T05:39:08.320Z,0.00
2019-02-06T05:40:08.205Z,0.00
2019-02-06T05:41:08.198Z,0.00
2019-02-06T05:42:08.182Z,0.00
2019-02-06T05:43:08.180Z,0.00
2019-02-06T05:44:08.162Z,0.00
2019-02-06T05:45:08.159Z,0.00
2019-02-06T05:46:08.141Z,0.00
2019-02-06T05:47:08.135Z,0.00
2019-02-06T05:48:08.129Z,0.00
2019-02-06T05:49:08.112Z,0.00
2019-02-06T05:50:08.108Z,0.00
2019-02-06T05:51:08.094Z,0.00
2019-02-06T05:52:08.089Z,0.00
2019-02-06T05:53:08.071Z,0.00
2019-02-06T05:54:08.066Z,0.00
2019-02-06T05:55:08.052Z,0.00
2019-02-06T05:56:08.039Z,0.00
2019-02-06T05:57:08.031Z,0.00
2019-02-06T05:59:08.007Z,0.00
2019-02-06T06:00:08.003Z,0.00
2019-02-06T06:01:07.987Z,0.00
2019-02-06T06:02:07.980Z,0.00
2019-02-06T06:03:07.974Z,0.00
2019-02-06T06:04:08.087Z,0.00
2019-02-06T06:05:07.949Z,0.00
2019-02-06T06:06:07.939Z,0.00
2019-02-06T06:07:07.930Z,0.00
2019-02-06T06:08:07.917Z,0.00
2019-02-06T06:09:07.945Z,0.00
2019-02-06T06:10:07.898Z,0.00
2019-02-06T06:11:07.892Z,0.00
2019-02-06T06:12:07.877Z,0.00
2019-02-06T06:13:07.865Z,0.00
2019-02-06T06:14:07.854Z,0.00
2019-02-06T06:15:07.846Z,0.00
2019-02-06T06:16:07.833Z,0.00
2019-02-06T06:17:07.826Z,0.00
2019-02-06T06:18:07.814Z,0.00
2019-02-06T06:19:07.805Z,0.00
2019-02-06T06:20:07.794Z,0.00
2019-02-06T06:21:07.781Z,0.00
2019-02-06T06:22:07.770Z,0.00
2019-02-06T06:23:07.762Z,0.00
2019-02-06T06:24:09.174Z,0.00
2019-02-06T06:25:07.758Z,0.00
2019-02-06T06:26:07.736Z,0.00
2019-02-06T06:27:07.753Z,0.00
2019-02-06T06:28:07.718Z,0.00
2019-02-06T06:29:07.700Z,0.00
2019-02-06T06:30:07.692Z,0.00
2019-02-06T06:31:07.683Z,0.00
2019-02-06T06:32:07.668Z,0.00
2019-02-06T06:33:07.664Z,4.00
2019-02-06T06:34:07.666Z,4.00
2019-02-06T06:35:07.643Z,4.00
2019-02-06T06:36:07.634Z,4.00
2019-02-06T06:37:07.620Z,4.00
2019-02-06T06:38:07.611Z,8.00
2019-02-06T06:39:07.597Z,4.00
2019-02-06T06:40:07.593Z,8.00
2019-02-06T06:41:07.580Z,8.00
2019-02-06T06:42:07.568Z,8.00
2019-02-06T06:43:07.566Z,12.00
2019-02-06T06:44:07.549Z,12.00
2019-02-06T06:45:07.538Z,16.00
2019-02-06T06:46:07.527Z,20.00
2019-02-06T06:47:07.521Z,20.00
2019-02-06T06:48:07.514Z,24.00
2019-02-06T06:49:07.500Z,32.00
2019-02-06T06:50:07.484Z,36.00
2019-02-06T06:51:07.476Z,44.00
2019-02-06T06:52:07.465Z,48.00
2019-02-06T06:53:07.455Z,52.00
2019-02-06T06:54:07.452Z,64.00
2019-02-06T06:55:07.529Z,72.00
2019-02-06T06:56:07.424Z,80.00
2019-02-06T06:57:07.416Z,88.00
2019-02-06T06:58:07.409Z,96.00
2019-02-06T06:59:07.396Z,108.00
2019-02-06T07:00:07.389Z,120.00
2019-02-06T07:01:07.380Z,128.00
2019-02-06T07:02:07.364Z,140.00
2019-02-06T07:03:07.358Z,156.00
2019-02-06T07:04:07.343Z,164.00
2019-02-06T07:05:07.335Z,180.00
2019-02-06T07:06:07.324Z,196.00
2019-02-06T07:07:07.320Z,216.00
2019-02-06T07:08:10.124Z,240.00
2019-02-06T07:09:07.295Z,264.00
2019-02-06T07:10:07.284Z,284.00
2019-02-06T07:11:07.273Z,316.00
2019-02-06T07:12:07.268Z,348.00
2019-02-06T07:13:07.253Z,376.00
2019-02-06T07:14:07.246Z,408.00
2019-02-06T07:15:07.233Z,440.00
2019-02-06T07:16:07.223Z,476.00
2019-02-06T07:17:07.218Z,508.00
2019-02-06T07:18:07.206Z,540.00
2019-02-06T07:19:07.197Z,572.00
2019-02-06T07:20:07.180Z,600.00
2019-02-06T07:21:07.173Z,632.00
2019-02-06T07:22:07.159Z,652.00
2019-02-06T07:23:07.154Z,676.00
2019-02-06T07:24:07.144Z,700.00
2019-02-06T07:25:07.128Z,732.00
2019-02-06T07:26:07.126Z,764.00
2019-02-06T07:27:07.116Z,804.00
2019-02-06T07:28:07.104Z,848.00
2019-02-06T07:29:07.088Z,892.00
2019-02-06T07:30:07.078Z,944.00
2019-02-06T07:31:07.073Z,996.00
2019-02-06T07:32:07.066Z,1044.00
2019-02-06T07:33:07.052Z,1100.00
2019-02-06T07:34:07.045Z,1144.00
2019-02-06T07:35:07.031Z,1192.00
2019-02-06T07:36:07.022Z,1244.00
2019-02-06T07:37:07.011Z,1288.00
2019-02-06T07:38:06.997Z,1336.00
2019-02-06T07:39:06.995Z,1376.00
2019-02-06T07:40:06.982Z,1420.00
2019-02-06T07:41:06.971Z,1476.00
2019-02-06T07:42:06.959Z,1532.00
2019-02-06T07:43:06.953Z,1592.00
2019-02-06T07:44:06.949Z,1652.00
2019-02-06T07:45:06.929Z,1712.00
2019-02-06T07:46:06.921Z,1772.00
2019-02-06T07:47:06.913Z,1840.00
2019-02-06T07:48:06.905Z,1892.00
2019-02-06T07:49:06.894Z,1956.00
2019-02-06T07:50:07.081Z,2016.00
2019-02-06T07:51:06.874Z,2076.00
2019-02-06T07:52:06.869Z,2128.00
2019-02-06T07:53:06.856Z,2192.00
2019-02-06T07:54:06.844Z,2216.00
2019-02-06T07:55:06.829Z,2260.00
2019-02-06T07:56:06.821Z,2292.00
2019-02-06T07:57:06.811Z,2336.00
2019-02-06T07:58:06.802Z,2356.00
2019-02-06T07:59:06.791Z,2368.00
2019-02-06T08:00:06.788Z,2384.00
2019-02-06T08:01:06.774Z,2396.00
2019-02-06T08:02:06.761Z,2404.00
2019-02-06T08:03:06.762Z,2428.00
2019-02-06T08:04:06.748Z,2440.00
2019-02-06T08:05:06.736Z,2456.00
2019-02-06T08:06:06.722Z,2504.00
2019-02-06T08:07:06.717Z,2568.00
2019-02-06T08:08:06.707Z,2608.00
2019-02-06T08:09:06.697Z,2672.00
2019-02-06T08:10:06.688Z,2720.00
2019-02-06T08:11:06.674Z,2768.00
2019-02-06T08:12:06.664Z,2824.00
2019-02-06T08:13:06.659Z,2868.00
2019-02-06T08:14:06.650Z,2884.00
2019-02-06T08:15:06.638Z,2912.00
2019-02-06T08:16:07.406Z,2920.00
2019-02-06T08:17:06.821Z,2960.00
2019-02-06T08:18:06.612Z,2920.00
2019-02-06T08:19:06.599Z,2912.00
2019-02-06T08:20:06.595Z,2924.00
2019-02-06T08:21:06.583Z,2928.00
2019-02-06T08:22:06.576Z,2968.00
2019-02-06T08:23:06.567Z,3028.00
2019-02-06T08:24:06.552Z,3068.00
2019-02-06T08:25:06.542Z,3068.00
2019-02-06T08:26:06.644Z,3144.00
2019-02-06T08:27:06.528Z,3144.00
2019-02-06T08:28:06.517Z,3172.00
2019-02-06T08:29:06.502Z,3216.00
2019-02-06T08:30:06.499Z,3256.00
2019-02-06T08:31:06.486Z,3328.00
2019-02-06T08:32:06.476Z,3408.00
2019-02-06T08:33:06.470Z,3464.00
2019-02-06T08:34:06.459Z,3508.00
2019-02-06T08:35:06.446Z,3568.00
2019-02-06T08:36:06.442Z,3616.00
2019-02-06T08:37:06.429Z,3644.00
2019-02-06T08:38:06.424Z,3648.00
2019-02-06T08:39:06.415Z,3656.00
2019-02-06T08:40:06.400Z,3648.00
2019-02-06T08:41:06.395Z,3656.00
2019-02-06T08:42:06.384Z,3684.00
2019-02-06T08:43:06.377Z,3716.00
2019-02-06T08:44:06.372Z,3712.00
2019-02-06T08:45:06.361Z,3704.00
2019-02-06T08:46:06.363Z,3724.00
2019-02-06T08:47:06.336Z,3772.00
2019-02-06T08:48:06.332Z,3800.00
2019-02-06T08:49:06.319Z,3840.00
2019-02-06T08:50:06.313Z,3880.00
2019-02-06T08:52:06.290Z,4012.00
2019-02-06T08:53:06.286Z,4088.00
2019-02-06T08:54:06.476Z,4196.00
2019-02-06T08:55:06.269Z,4264.00
2019-02-06T08:56:06.256Z,4352.00
2019-02-06T08:57:06.245Z,4472.00
2019-02-06T08:58:06.245Z,4628.00
2019-02-06T08:59:06.231Z,4828.00
2019-02-06T09:00:06.226Z,5052.00
2019-02-06T09:01:06.215Z,5252.00
2019-02-06T09:02:06.200Z,5484.00
2019-02-06T09:03:06.209Z,5720.00
2019-02-06T09:04:06.187Z,5904.00
2019-02-06T09:05:07.630Z,6088.00
2019-02-06T09:06:06.172Z,6224.00
2019-02-06T09:07:06.157Z,6348.00
2019-02-06T09:08:06.150Z,6472.00
2019-02-06T09:09:06.140Z,6568.00
2019-02-06T09:10:06.137Z,6652.00
2019-02-06T09:11:06.127Z,6716.00
2019-02-06T09:12:06.123Z,6744.00
2019-02-06T09:13:06.109Z,6740.00
2019-02-06T09:14:06.138Z,6728.00
2019-02-06T09:15:06.097Z,6696.00
2019-02-06T09:16:06.086Z,6692.00
2019-02-06T09:17:06.079Z,6652.00
2019-02-06T09:18:06.070Z,6640.00
2019-02-06T09:19:06.057Z,6640.00
2019-02-06T09:21:06.048Z,6720.00
2019-02-06T09:22:06.040Z,6788.00
2019-02-06T09:23:06.027Z,6876.00
2019-02-06T09:24:06.018Z,6996.00
2019-02-06T09:25:06.009Z,7192.00
2019-02-06T09:26:06.004Z,7408.00
2019-02-06T09:28:05.991Z,7664.00
2019-02-06T09:29:05.980Z,7752.00
2019-02-06T09:30:05.969Z,7872.00
2019-02-06T09:31:05.961Z,7888.00
2019-02-06T09:32:05.961Z,7948.00
2019-02-06T09:33:05.948Z,8140.00
2019-02-06T09:34:05.942Z,8120.00
2019-02-06T09:35:05.931Z,8124.00
2019-02-06T09:36:05.928Z,8124.00
2019-02-06T09:37:05.918Z,8064.00
2019-02-06T09:38:06.117Z,7936.00
2019-02-06T09:39:11.594Z,7700.00
2019-02-06T09:40:05.896Z,7544.00
2019-02-06T09:41:05.886Z,7496.00
2019-02-06T09:42:05.878Z,7476.00
2019-02-06T09:43:05.875Z,7496.00
2019-02-06T09:44:05.867Z,7464.00
2019-02-06T09:45:05.861Z,7428.00
2019-02-06T09:46:05.852Z,7392.00
2019-02-06T09:47:05.845Z,7300.00
2019-02-06T09:48:05.838Z,7148.00
2019-02-06T09:49:05.825Z,7020.00
2019-02-06T09:50:05.825Z,6944.00
2019-02-06T09:51:05.819Z,6636.00
2019-02-06T09:52:05.811Z,6296.00
2019-02-06T09:53:05.800Z,5844.00
2019-02-06T09:54:05.793Z,5548.00
2019-02-06T09:55:05.786Z,5340.00
2019-02-06T09:56:05.780Z,5096.00
2019-02-06T09:57:05.774Z,5084.00
2019-02-06T09:58:05.804Z,5108.00
2019-02-06T09:59:05.760Z,5012.00
2019-02-06T10:00:05.745Z,5192.00
2019-02-06T10:01:05.736Z,5460.00
2019-02-06T10:02:05.731Z,5280.00
2019-02-06T10:03:05.724Z,5332.00
2019-02-06T10:04:05.718Z,5328.00
2019-02-06T10:05:05.714Z,5440.00
2019-02-06T10:06:05.701Z,5680.00
2019-02-06T10:07:05.689Z,6008.00
2019-02-06T10:08:05.686Z,6364.00
2019-02-06T10:09:05.677Z,6432.00
2019-02-06T10:10:05.668Z,6548.00
2019-02-06T10:11:05.769Z,6572.00
2019-02-06T10:12:05.652Z,6384.00
2019-02-06T10:13:05.644Z,6176.00
2019-02-06T10:14:05.642Z,5584.00
2019-02-06T10:15:05.633Z,5064.00
2019-02-06T10:16:05.625Z,4496.00
2019-02-06T10:17:05.617Z,4108.00
2019-02-06T10:18:05.606Z,4072.00
2019-02-06T10:19:05.601Z,3984.00
2019-02-06T10:20:05.597Z,3928.00
2019-02-06T10:21:05.582Z,3996.00
2019-02-06T10:22:05.578Z,4172.00
2019-02-06T10:23:05.576Z,4332.00
2019-02-06T10:24:05.563Z,4528.00
2019-02-06T10:25:05.553Z,4832.00
2019-02-06T10:26:05.550Z,5056.00
2019-02-06T10:27:05.542Z,5224.00
2019-02-06T10:28:05.536Z,5396.00
2019-02-06T10:29:05.523Z,5672.00
2019-02-06T10:30:05.513Z,5880.00
2019-02-06T10:31:05.510Z,6136.00
2019-02-06T10:32:05.498Z,6352.00
2019-02-06T10:33:05.490Z,6528.00
2019-02-06T10:34:05.487Z,6792.00
2019-02-06T10:35:05.478Z,6572.00
2019-02-06T10:36:05.468Z,6524.00
2019-02-06T10:37:05.467Z,6272.00
2019-02-06T10:38:05.454Z,5976.00
2019-02-06T10:39:05.445Z,5680.00
2019-02-06T10:40:05.716Z,5360.00
2019-02-06T10:41:05.429Z,5328.00
2019-02-06T10:42:05.425Z,5268.00
2019-02-06T10:43:05.421Z,5424.00
2019-02-06T10:44:05.409Z,5600.00
2019-02-06T10:45:05.405Z,5500.00
2019-02-06T10:46:05.396Z,5456.00
2019-02-06T10:47:05.390Z,5352.00
2019-02-06T10:48:05.381Z,5292.00
2019-02-06T10:49:05.375Z,5356.00
2019-02-06T10:50:05.366Z,5060.00
2019-02-06T10:51:05.356Z,5044.00
2019-02-06T10:52:05.354Z,5136.00
2019-02-06T10:53:05.344Z,5256.00
2019-02-06T10:54:05.335Z,5280.00
2019-02-06T10:55:05.326Z,5036.00
2019-02-06T10:56:05.320Z,5116.00
2019-02-06T10:57:05.312Z,5416.00
2019-02-06T10:58:05.304Z,5352.00
2019-02-06T10:59:05.295Z,5416.00
2019-02-06T11:00:05.288Z,5560.00
2019-02-06T11:01:05.282Z,6044.00
2019-02-06T11:03:05.266Z,5928.00
2019-02-06T11:04:05.260Z,5784.00
2019-02-06T11:05:05.251Z,5512.00
2019-02-06T11:06:05.241Z,5404.00
2019-02-06T11:07:08.079Z,5496.00
2019-02-06T11:08:05.224Z,5700.00
2019-02-06T11:09:05.417Z,5704.00
2019-02-06T11:10:05.210Z,5644.00
2019-02-06T11:11:05.208Z,5752.00
2019-02-06T11:12:05.199Z,5736.00
2019-02-06T11:13:05.187Z,5844.00
2019-02-06T11:14:05.179Z,5636.00
2019-02-06T11:15:05.172Z,5552.00
2019-02-06T11:16:05.171Z,5716.00
2019-02-06T11:17:05.158Z,6112.00
2019-02-06T11:18:05.154Z,6516.00
2019-02-06T11:19:05.222Z,6488.00
2019-02-06T11:20:05.136Z,6292.00
2019-02-06T11:21:05.130Z,6320.00
2019-02-06T11:22:05.119Z,6368.00
2019-02-06T11:23:05.115Z,6504.00
2019-02-06T11:24:05.104Z,6240.00
2019-02-06T11:25:05.105Z,6840.00
2019-02-06T11:26:05.094Z,6684.00
2019-02-06T11:27:05.087Z,6608.00
2019-02-06T11:28:05.277Z,6164.00
2019-02-06T11:29:05.074Z,5860.00
2019-02-06T11:30:05.062Z,5096.00
2019-02-06T11:31:05.056Z,4644.00
2019-02-06T11:32:05.049Z,4112.00
2019-02-06T11:33:05.043Z,3864.00
2019-02-06T11:34:05.034Z,4132.00
2019-02-06T11:35:05.030Z,4424.00
2019-02-06T11:36:05.023Z,4452.00
2019-02-06T11:37:05.015Z,4708.00
2019-02-06T11:38:05.003Z,5152.00
2019-02-06T11:39:05.006Z,5548.00
2019-02-06T11:40:04.992Z,5404.00
2019-02-06T11:41:05.052Z,5456.00
2019-02-06T11:42:04.974Z,5704.00
2019-02-06T11:43:04.967Z,6120.00
2019-02-06T11:44:04.963Z,6080.00
2019-02-06T11:45:04.962Z,6036.00
2019-02-06T11:46:04.943Z,6056.00
2019-02-06T11:47:04.946Z,6104.00
2019-02-06T11:48:04.933Z,6372.00
2019-02-06T11:49:04.922Z,6568.00
2019-02-06T11:50:04.918Z,6540.00
2019-02-06T11:51:04.915Z,6360.00
2019-02-06T11:52:04.903Z,6248.00
2019-02-06T11:53:04.905Z,6288.00
2019-02-06T11:54:04.896Z,5844.00
2019-02-06T11:55:04.884Z,5464.00
2019-02-06T11:56:04.876Z,5268.00
2019-02-06T11:57:04.867Z,5492.00
2019-02-06T11:58:04.866Z,5564.00
2019-02-06T11:59:04.860Z,5500.00
2019-02-06T12:00:04.851Z,5360.00
2019-02-06T12:01:04.841Z,5116.00
2019-02-06T12:02:04.835Z,4864.00
2019-02-06T12:03:04.826Z,4668.00
2019-02-06T12:04:04.824Z,4564.00
2019-02-06T12:05:04.815Z,4520.00
2019-02-06T12:06:04.811Z,4496.00
2019-02-06T12:07:04.804Z,4612.00
2019-02-06T12:08:04.796Z,4660.00
2019-02-06T12:09:04.787Z,5036.00
2019-02-06T12:10:09.765Z,5260.00
2019-02-06T12:11:04.775Z,5520.00
2019-02-06T12:12:04.763Z,5852.00
2019-02-06T12:13:04.759Z,5832.00
2019-02-06T12:14:04.753Z,5728.00
2019-02-06T12:15:04.742Z,5652.00
2019-02-06T12:16:04.735Z,5956.00
2019-02-06T12:17:04.728Z,5916.00
2019-02-06T12:18:04.731Z,5476.00
2019-02-06T12:19:04.725Z,5180.00
2019-02-06T12:20:04.717Z,5156.00
2019-02-06T12:21:04.706Z,5012.00
2019-02-06T12:22:04.694Z,4492.00
2019-02-06T12:23:04.690Z,4308.00
2019-02-06T12:24:04.682Z,4588.00
2019-02-06T12:25:04.676Z,4616.00
2019-02-06T12:26:04.671Z,4824.00
2019-02-06T12:27:04.663Z,4960.00
2019-02-06T12:28:05.280Z,4848.00
2019-02-06T12:29:04.653Z,4500.00
2019-02-06T12:30:04.645Z,4516.00
2019-02-06T12:31:04.632Z,4400.00
2019-02-06T12:32:04.625Z,4572.00
2019-02-06T12:33:04.626Z,4460.00
2019-02-06T12:34:04.634Z,4592.00
2019-02-06T12:35:04.611Z,4620.00
2019-02-06T12:36:04.597Z,4568.00
2019-02-06T12:37:04.595Z,4252.00
2019-02-06T12:38:04.586Z,3668.00
2019-02-06T12:39:04.584Z,3672.00
2019-02-06T12:40:04.581Z,3812.00
2019-02-06T12:41:04.565Z,3868.00
2019-02-06T12:42:04.566Z,4136.00
2019-02-06T12:43:04.552Z,4288.00
2019-02-06T12:44:04.545Z,4296.00
2019-02-06T12:45:04.544Z,4172.00
2019-02-06T12:46:04.532Z,4416.00
2019-02-06T12:47:04.523Z,4476.00
2019-02-06T12:48:04.516Z,4748.00
2019-02-06T12:49:04.616Z,4948.00
2019-02-06T12:50:04.502Z,4852.00